createdAt,value
2023-02-28T00:01:11.320Z,1.17
2023-02-28T00:04:22.846Z,1.10
2023-02-28T00:07:32.754Z,1.15
2023-02-28T00:10:44.779Z,0.75
2023-02-28T00:13:56.737Z,1.45
2023-02-28T00:17:10.996Z,1.65
2023-02-28T00:20:21.915Z,1.02
2023-02-28T00:23:32.872Z,1.02
2023-02-28T00:26:45.476Z,0.80
2023-02-28T00:29:55.615Z,1.25
2023-02-28T00:33:05.340Z,0.50
2023-02-28T00:36:15.730Z,0.70
2023-02-28T00:39:25.626Z,0.72
2023-02-28T00:42:38.155Z,0.98
2023-02-28T00:45:48.899Z,1.07
2023-02-28T00:48:58.962Z,1.45
2023-02-28T00:52:10.041Z,1.30
2023-02-28T00:55:22.984Z,0.60
2023-02-28T00:58:35.207Z,1.42
2023-02-28T01:01:48.014Z,0.72
2023-02-28T01:05:01.030Z,1.55
2023-02-28T01:08:11.411Z,0.60
2023-02-28T01:11:22.886Z,1.67
2023-02-28T01:14:32.328Z,1.65
2023-02-28T01:17:44.921Z,1.00
2023-02-28T01:20:54.355Z,1.07
2023-02-28T01:24:06.012Z,1.02
2023-02-28T01:27:15.110Z,1.12
2023-02-28T01:30:26.395Z,1.47
2023-02-28T01:33:38.615Z,1.17
2023-02-28T01:36:48.331Z,1.00
2023-02-28T01:40:00.360Z,1.22
2023-02-28T01:43:12.844Z,1.60
2023-02-28T01:46:24.565Z,2.10
2023-02-28T01:49:33.755Z,1.95
2023-02-28T01:52:46.088Z,1.67
2023-02-28T01:55:55.492Z,2.07
2023-02-28T01:59:06.298Z,1.95
2023-02-28T02:02:19.525Z,1.00
2023-02-28T02:05:29.483Z,1.82
2023-02-28T02:08:39.948Z,1.77
2023-02-28T02:11:48.777Z,1.42
2023-02-28T02:15:04.698Z,1.22
2023-02-28T02:18:18.040Z,1.62
2023-02-28T02:25:12.413Z,2.27
2023-02-28T02:28:46.526Z,2.00
2023-02-28T02:32:32.840Z,1.25
2023-02-28T02:35:43.768Z,1.52
2023-02-28T02:38:55.433Z,1.20
2023-02-28T02:42:08.078Z,1.60
2023-02-28T02:45:20.048Z,1.05
2023-02-28T02:48:30.832Z,0.70
2023-02-28T02:51:39.836Z,0.93
2023-02-28T02:54:49.912Z,2.20
2023-02-28T02:58:02.190Z,0.75
2023-02-28T03:01:12.214Z,1.70
2023-02-28T03:04:21.512Z,1.22
2023-02-28T03:07:32.870Z,1.52
2023-02-28T03:10:42.556Z,1.02
2023-02-28T03:14:27.614Z,2.27
2023-02-28T03:17:49.551Z,1.15
2023-02-28T03:21:00.173Z,1.10
2023-02-28T03:27:29.718Z,1.40
2023-02-28T03:30:44.652Z,0.72
2023-02-28T03:33:57.150Z,1.32
2023-02-28T03:37:13.289Z,1.30
2023-02-28T03:40:24.384Z,1.12
2023-02-28T03:43:36.469Z,1.20
2023-02-28T03:46:50.435Z,1.10
2023-02-28T03:50:00.382Z,0.62
2023-02-28T03:53:10.442Z,1.12
2023-02-28T03:56:21.177Z,1.52
2023-02-28T03:59:32.605Z,1.20
2023-02-28T04:02:45.092Z,1.12
2023-02-28T04:05:56.745Z,1.27
2023-02-28T04:09:04.480Z,1.40
2023-02-28T04:12:14.416Z,1.22
2023-02-28T04:15:28.201Z,1.55
2023-02-28T04:18:41.532Z,1.75
2023-02-28T04:24:59.707Z,1.02
2023-02-28T04:28:09.676Z,1.65
2023-02-28T04:31:21.051Z,1.00
2023-02-28T04:34:31.333Z,0.98
2023-02-28T04:37:43.308Z,1.00
2023-02-28T04:40:54.088Z,0.95
2023-02-28T04:44:06.366Z,1.20
2023-02-28T04:47:18.655Z,0.70
2023-02-28T04:50:30.359Z,1.05
2023-02-28T04:53:41.591Z,0.80
2023-02-28T04:56:52.494Z,1.40
2023-02-28T05:00:06.745Z,1.37
2023-02-28T05:03:17.806Z,0.62
2023-02-28T05:06:28.030Z,0.80
2023-02-28T05:09:36.230Z,0.80
2023-02-28T05:12:46.779Z,0.80
2023-02-28T05:15:57.341Z,1.02
2023-02-28T05:19:07.990Z,1.00
2023-02-28T05:22:20.326Z,0.40
2023-02-28T05:25:31.520Z,0.80
2023-02-28T05:28:41.258Z,0.75
2023-02-28T05:31:53.787Z,1.07
2023-02-28T05:35:04.407Z,1.00
2023-02-28T05:38:12.505Z,0.95
2023-02-28T05:41:23.917Z,0.82
2023-02-28T05:44:37.209Z,1.02
2023-02-28T05:47:51.192Z,0.88
2023-02-28T05:51:03.440Z,0.95
2023-02-28T05:54:16.183Z,0.75
2023-02-28T05:57:26.826Z,0.78
2023-02-28T06:00:36.484Z,0.60
2023-02-28T06:03:45.499Z,0.70
2023-02-28T06:06:55.412Z,0.62
2023-02-28T06:10:05.374Z,0.82
2023-02-28T06:13:14.400Z,0.70
2023-02-28T06:16:23.608Z,0.90
2023-02-28T06:19:35.782Z,1.17
2023-02-28T06:22:48.106Z,1.10
2023-02-28T06:26:01.507Z,0.47
2023-02-28T06:32:22.456Z,0.75
2023-02-28T06:35:32.673Z,1.17
2023-02-28T06:38:43.984Z,0.78
2023-02-28T06:41:56.571Z,0.57
2023-02-28T06:45:10.383Z,0.93
2023-02-28T06:48:20.636Z,0.80
2023-02-28T06:51:30.170Z,0.85
2023-02-28T06:54:40.485Z,0.95
2023-02-28T06:57:53.827Z,1.10
2023-02-28T07:01:07.101Z,0.53
2023-02-28T07:04:18.925Z,1.00
2023-02-28T07:07:29.696Z,1.00
2023-02-28T07:10:43.422Z,0.75
2023-02-28T07:13:53.598Z,0.62
2023-02-28T07:17:03.867Z,0.70
2023-02-28T07:20:18.143Z,0.60
2023-02-28T07:23:29.058Z,0.88
2023-02-28T07:26:41.740Z,0.62
2023-02-28T07:29:52.483Z,0.82
2023-02-28T07:33:02.315Z,0.95
2023-02-28T07:36:16.668Z,0.60
2023-02-28T07:39:26.732Z,0.60
2023-02-28T07:42:37.155Z,0.95
2023-02-28T07:45:48.891Z,0.78
2023-02-28T07:49:00.221Z,0.85
2023-02-28T07:52:12.427Z,0.55
2023-02-28T07:55:26.972Z,0.75
2023-02-28T07:58:39.311Z,0.62
2023-02-28T08:01:53.022Z,0.70
2023-02-28T08:05:05.884Z,0.70
2023-02-28T08:08:13.889Z,0.60
2023-02-28T08:11:25.283Z,0.70
2023-02-28T08:14:37.606Z,0.93
2023-02-28T08:17:49.028Z,0.60
2023-02-28T08:21:01.880Z,0.70
2023-02-28T08:24:11.544Z,0.95
2023-02-28T08:27:22.367Z,0.88
2023-02-28T08:30:33.834Z,0.70
2023-02-28T08:33:46.193Z,0.70
2023-02-28T08:36:58.862Z,1.02
2023-02-28T08:40:15.319Z,0.65
2023-02-28T08:43:26.882Z,0.50
2023-02-28T08:46:36.858Z,0.60
2023-02-28T08:49:45.366Z,0.55
2023-02-28T08:52:55.009Z,0.60
2023-02-28T08:56:06.927Z,0.82
2023-02-28T08:59:19.335Z,0.75
2023-02-28T09:02:29.234Z,0.50
2023-02-28T09:05:39.173Z,0.60
2023-02-28T09:08:47.975Z,0.60
2023-02-28T09:11:59.364Z,0.55
2023-02-28T09:15:15.020Z,0.78
2023-02-28T09:18:26.581Z,0.53
2023-02-28T09:21:39.140Z,0.70
2023-02-28T09:24:50.266Z,1.23
2023-02-28T09:28:03.504Z,0.85
2023-02-28T09:31:15.621Z,0.53
2023-02-28T09:34:25.846Z,0.70
2023-02-28T09:37:35.507Z,0.85
2023-02-28T09:40:48.165Z,0.50
2023-02-28T09:44:00.288Z,0.68
2023-02-28T09:47:14.835Z,0.62
2023-02-28T09:50:32.637Z,0.70
2023-02-28T09:53:45.770Z,0.60
2023-02-28T09:56:58.953Z,0.88
2023-02-28T10:00:25.023Z,0.93
2023-02-28T10:03:37.500Z,0.85
2023-02-28T10:06:49.983Z,0.73
2023-02-28T10:10:00.455Z,0.70
2023-02-28T10:13:11.102Z,0.55
2023-02-28T10:16:24.460Z,0.85
2023-02-28T10:22:47.103Z,0.60
2023-02-28T10:25:58.662Z,0.88
2023-02-28T10:29:11.165Z,0.93
2023-02-28T10:32:22.417Z,0.78
2023-02-28T10:35:36.580Z,0.60
2023-02-28T10:38:47.354Z,0.72
2023-02-28T10:41:58.763Z,0.60
2023-02-28T10:45:16.269Z,0.90
2023-02-28T10:48:41.004Z,0.75
2023-02-28T10:51:50.376Z,0.70
2023-02-28T10:55:06.028Z,0.50
2023-02-28T10:58:29.319Z,0.60
2023-02-28T11:01:47.751Z,0.55
2023-02-28T11:05:00.467Z,0.93
2023-02-28T11:08:15.369Z,0.72
2023-02-28T11:11:24.794Z,0.45
2023-02-28T11:14:33.408Z,0.70
2023-02-28T11:17:45.924Z,0.72
2023-02-28T11:20:56.368Z,0.50
2023-02-28T11:24:08.547Z,0.80
2023-02-28T11:27:32.307Z,0.60
2023-02-28T11:30:45.754Z,0.50
2023-02-28T11:33:57.198Z,1.20
2023-02-28T11:37:10.488Z,0.70
2023-02-28T11:40:25.120Z,0.50
2023-02-28T11:43:42.568Z,0.70
2023-02-28T11:46:54.618Z,0.70
2023-02-28T11:50:12.220Z,0.90
2023-02-28T11:53:28.278Z,0.88
2023-02-28T11:56:41.611Z,0.62
2023-02-28T12:03:08.602Z,0.50
2023-02-28T12:06:22.573Z,1.02
2023-02-28T12:09:50.293Z,0.80
2023-02-28T12:13:13.221Z,0.85
2023-02-28T12:16:33.802Z,0.68
2023-02-28T12:19:47.333Z,0.70
2023-02-28T12:23:00.354Z,0.60
2023-02-28T12:26:18.871Z,0.60
2023-02-28T12:29:30.369Z,0.55
2023-02-28T12:32:41.686Z,0.60
2023-02-28T12:35:53.714Z,0.70
2023-02-28T12:39:04.295Z,0.62
2023-02-28T12:42:18.908Z,0.50
2023-02-28T12:45:30.015Z,0.78
2023-02-28T12:48:45.110Z,0.60
2023-02-28T12:51:54.724Z,0.60
2023-02-28T12:55:08.829Z,0.60
2023-02-28T12:58:20.328Z,0.60
2023-02-28T13:01:55.410Z,0.80
2023-02-28T13:09:12.493Z,0.43
2023-02-28T13:12:23.952Z,0.57
2023-02-28T13:15:37.914Z,0.72
2023-02-28T13:18:51.452Z,0.68
2023-02-28T13:22:01.826Z,0.60
2023-02-28T13:25:28.395Z,0.65
2023-02-28T13:29:10.935Z,1.12
2023-02-28T13:32:54.737Z,1.35
2023-02-28T13:36:26.216Z,0.60
2023-02-28T13:39:56.375Z,1.22
2023-02-28T13:43:09.024Z,1.10
2023-02-28T13:46:19.640Z,1.05
2023-02-28T13:49:33.259Z,0.57
2023-02-28T13:52:48.597Z,1.05
2023-02-28T13:55:57.693Z,0.95
2023-02-28T13:59:13.021Z,0.57
2023-02-28T14:02:38.568Z,0.72
2023-02-28T14:05:47.315Z,0.90
2023-02-28T14:08:59.696Z,0.82
2023-02-28T14:12:46.094Z,1.03
2023-02-28T14:15:59.741Z,0.90
2023-02-28T14:19:09.533Z,0.80
2023-02-28T14:22:26.186Z,1.27
2023-02-28T14:25:36.943Z,1.05
2023-02-28T14:28:55.770Z,1.32
2023-02-28T14:32:06.003Z,0.78
2023-02-28T14:35:21.583Z,0.90
2023-02-28T14:38:36.582Z,0.80
2023-02-28T14:41:47.752Z,0.82
2023-02-28T14:45:03.530Z,0.70
2023-02-28T14:48:15.451Z,0.50
2023-02-28T14:51:25.980Z,0.95
2023-02-28T14:54:35.241Z,0.82
2023-02-28T14:57:49.283Z,0.85
2023-02-28T15:01:03.409Z,1.12
2023-02-28T15:04:18.630Z,0.85
2023-02-28T15:07:31.000Z,1.05
2023-02-28T15:10:41.735Z,0.53
2023-02-28T15:13:52.390Z,0.75
2023-02-28T15:17:03.424Z,0.80
2023-02-28T15:20:21.530Z,0.72
2023-02-28T15:23:30.004Z,0.50
2023-02-28T15:26:45.241Z,1.07
2023-02-28T15:29:55.451Z,0.78
2023-02-28T15:33:24.495Z,0.70
2023-02-28T15:36:35.967Z,0.50
2023-02-28T15:39:49.635Z,0.93
2023-02-28T15:43:12.609Z,0.85
2023-02-28T15:46:25.222Z,0.70
2023-02-28T15:49:42.596Z,0.42
2023-02-28T15:56:01.373Z,1.00
2023-02-28T15:59:15.364Z,0.85
2023-02-28T16:02:27.261Z,0.88
2023-02-28T16:05:40.609Z,0.70
2023-02-28T16:11:58.678Z,0.60
2023-02-28T16:15:13.438Z,0.93
2023-02-28T16:18:22.615Z,0.85
2023-02-28T16:21:34.204Z,0.40
2023-02-28T16:24:45.744Z,0.95
2023-02-28T16:27:56.029Z,0.60
2023-02-28T16:31:05.066Z,0.68
2023-02-28T16:34:19.389Z,1.20
2023-02-28T16:37:30.783Z,0.93
2023-02-28T16:40:42.560Z,0.70
2023-02-28T16:43:53.689Z,0.60
2023-02-28T16:47:05.101Z,0.50
2023-02-28T16:50:20.805Z,0.50
2023-02-28T16:53:29.834Z,0.68
2023-02-28T16:56:41.323Z,0.60
2023-02-28T16:59:52.205Z,0.65
2023-02-28T17:03:06.595Z,0.90
2023-02-28T17:06:22.828Z,0.50
2023-02-28T17:09:42.012Z,0.50
2023-02-28T17:12:46.475Z,1.10
2023-02-28T17:15:58.125Z,1.90
2023-02-28T17:19:12.434Z,2.20
2023-02-28T17:22:22.552Z,1.67
2023-02-28T17:25:30.020Z,1.82
2023-02-28T17:28:41.576Z,1.70
2023-02-28T17:31:50.933Z,2.37
2023-02-28T17:34:59.004Z,2.05
2023-02-28T17:38:11.483Z,1.77
2023-02-28T17:41:23.373Z,1.40
2023-02-28T17:47:50.130Z,1.33
2023-02-28T17:50:58.196Z,1.15
2023-02-28T17:54:09.756Z,1.42
2023-02-28T17:57:21.050Z,0.98
2023-02-28T18:00:34.149Z,0.98
2023-02-28T18:03:44.671Z,1.25
2023-02-28T18:06:57.059Z,0.98
2023-02-28T18:10:07.189Z,0.63
2023-02-28T18:13:18.938Z,1.42
2023-02-28T18:16:29.542Z,0.80
2023-02-28T18:19:40.688Z,0.90
2023-02-28T18:22:50.718Z,0.72
2023-02-28T18:26:00.472Z,0.60
2023-02-28T18:29:10.721Z,1.15
2023-02-28T18:32:18.146Z,0.98
2023-02-28T18:35:38.139Z,1.00
2023-02-28T18:38:46.567Z,1.10
2023-02-28T18:41:57.340Z,1.35
2023-02-28T18:45:06.692Z,1.20
2023-02-28T18:48:15.086Z,1.25
2023-02-28T18:51:26.217Z,1.07
2023-02-28T18:54:36.694Z,0.75
2023-02-28T18:57:47.488Z,1.45
2023-02-28T19:00:56.517Z,1.02
2023-02-28T19:04:04.034Z,1.45
2023-02-28T19:07:15.375Z,1.47
2023-02-28T19:10:27.036Z,1.85
2023-02-28T19:13:37.857Z,1.40
2023-02-28T19:16:48.553Z,1.57
2023-02-28T19:20:00.935Z,2.00
2023-02-28T19:23:12.843Z,2.87
2023-02-28T19:26:23.086Z,2.17
2023-02-28T19:29:35.002Z,1.95
2023-02-28T19:32:43.544Z,2.25
2023-02-28T19:35:53.118Z,2.52
2023-02-28T19:39:02.496Z,2.40
2023-02-28T19:42:12.479Z,2.87
2023-02-28T19:45:23.534Z,4.75
2023-02-28T19:48:33.323Z,3.98
2023-02-28T19:51:44.675Z,2.72
2023-02-28T19:54:58.917Z,2.72
2023-02-28T19:58:08.673Z,3.25
2023-02-28T20:01:19.467Z,3.65
2023-02-28T20:04:31.107Z,3.67
2023-02-28T20:07:40.640Z,3.42
2023-02-28T20:10:53.053Z,4.08
2023-02-28T20:14:06.840Z,4.00
2023-02-28T20:17:15.024Z,3.85
2023-02-28T20:20:26.331Z,4.50
2023-02-28T20:23:37.000Z,2.77
2023-02-28T20:26:47.655Z,3.27
2023-02-28T20:29:58.964Z,2.77
2023-02-28T20:33:07.209Z,2.20
2023-02-28T20:36:18.237Z,2.00
2023-02-28T20:39:28.023Z,2.52
2023-02-28T20:42:38.596Z,2.25
2023-02-28T20:45:57.188Z,3.60
2023-02-28T20:49:09.897Z,3.30
2023-02-28T20:52:19.745Z,5.28
2023-02-28T20:55:29.600Z,6.65
2023-02-28T20:58:39.101Z,6.60
2023-02-28T21:01:50.582Z,6.92
2023-02-28T21:05:04.033Z,7.37
2023-02-28T21:08:15.386Z,7.00
2023-02-28T21:11:26.293Z,7.47
2023-02-28T21:14:33.868Z,5.50
2023-02-28T21:17:48.335Z,5.50
2023-02-28T21:21:01.561Z,5.80
2023-02-28T21:27:22.528Z,4.70
2023-02-28T21:30:32.603Z,3.95
2023-02-28T21:33:46.776Z,4.03
2023-02-28T21:36:56.257Z,4.08
2023-02-28T21:40:06.044Z,4.55
2023-02-28T21:43:15.113Z,5.03
2023-02-28T21:46:28.365Z,3.67
2023-02-28T21:49:41.477Z,3.98
2023-02-28T21:52:51.193Z,3.17
2023-02-28T21:55:59.273Z,3.22
2023-02-28T21:59:11.261Z,2.85
2023-02-28T22:02:22.002Z,2.60
2023-02-28T22:05:32.178Z,2.95
2023-02-28T22:08:44.765Z,2.70
2023-02-28T22:11:54.151Z,2.45
2023-02-28T22:15:06.822Z,2.20
2023-02-28T22:18:22.230Z,2.77
2023-02-28T22:21:34.458Z,2.50
2023-02-28T22:24:47.399Z,2.20
2023-02-28T22:27:58.138Z,2.62
2023-02-28T22:31:17.282Z,1.75
2023-02-28T22:34:28.806Z,2.47
2023-02-28T22:37:41.777Z,2.05
2023-02-28T22:40:53.919Z,1.92
2023-02-28T22:44:05.961Z,4.67
2023-02-28T22:47:15.646Z,16.75
2023-02-28T22:50:26.322Z,34.33
2023-02-28T22:53:37.900Z,25.77
2023-02-28T22:56:47.591Z,21.40
2023-02-28T22:59:58.304Z,18.32
2023-02-28T23:03:10.715Z,15.98
2023-02-28T23:06:26.357Z,13.32
2023-02-28T23:09:37.054Z,11.55
2023-02-28T23:12:55.178Z,10.75
2023-02-28T23:16:07.779Z,8.33
2023-02-28T23:19:18.678Z,8.80
2023-02-28T23:22:28.349Z,6.92
2023-02-28T23:25:38.826Z,5.67
2023-02-28T23:28:52.464Z,7.05
2023-02-28T23:32:00.813Z,7.17
2023-02-28T23:35:10.880Z,8.60
2023-02-28T23:38:23.354Z,9.98
2023-02-28T23:41:33.549Z,7.65
2023-02-28T23:44:44.885Z,5.67
2023-02-28T23:47:55.049Z,7.58
2023-02-28T23:51:10.309Z,5.95
2023-02-28T23:54:22.045Z,4.80
2023-02-28T23:57:33.930Z,5.35
